This is the latest recevied weather packets stored in our database for station/object KB1WCR. If no packets are shown the sender has not sent any weather packets the latest 10 day(s).
| Time | Temp. | Humidity | Pressure | Rain* | Wind** | Luminosity | Snow |
|---|---|---|---|---|---|---|---|
| 1777954830 | 15° C | 60% | 1008.3 hPa | 0 mm | - | 0 W/m² | - |
| 1777954526 | 15° C | 62% | 1008.1 hPa | 0 mm | - | 0 W/m² | - |
| 1777954224 | 14.44° C | 61% | 1008 hPa | 0 mm | - | 0 W/m² | - |
| 1777953921 | 15° C | 62% | 1007.9 hPa | 0 mm | - | 0 W/m² | - |
| 1777953618 | 14.44° C | 61% | 1008 hPa | 0 mm | - | 0 W/m² | - |
| 1777953314 | 14.44° C | 61% | 1007.8 hPa | 0 mm | - | 0 W/m² | - |
| 1777953011 | 14.44° C | 61% | 1008 hPa | 0 mm | - | 0 W/m² | - |
| 1777952707 | 14.44° C | 61% | 1007.9 hPa | 0 mm | - | 0 W/m² | - |
| 1777952404 | 14.44° C | 61% | 1007.9 hPa | 0 mm | - | 0 W/m² | - |
| 1777952101 | 13.89° C | 63% | 1007.9 hPa | 0 mm | - | 0 W/m² | - |
| 1777951800 | 13.89° C | 62% | 1007.8 hPa | 0 mm | - | 0 W/m² | - |
| 1777951497 | 13.89° C | 63% | 1007.8 hPa | 0 mm | - | 0 W/m² | - |
| 1777951193 | 13.89° C | 64% | 1007.8 hPa | 0 mm | - | 0 W/m² | - |
| 1777950890 | 13.33° C | 64% | 1007.8 hPa | 0 mm | - | 0 W/m² | - |
| 1777950587 | 12.78° C | 68% | 1007.8 hPa | 0 mm | - | 0 W/m² | - |
| 1777950283 | 11.11° C | 75% | 1007.5 hPa | 0 mm | - | 0 W/m² | - |
| 1777949978 | 10.56° C | 78% | 1007.8 hPa | 0 mm | - | 0 W/m² | - |
| 1777949676 | 10.56° C | 78% | 1007.7 hPa | 0 mm | - | 0 W/m² | - |
| 1777949374 | 10.56° C | 77% | 1007.8 hPa | 0 mm | - | 0 W/m² | - |
| 1777949071 | 10.56° C | 77% | 1007.8 hPa | 0 mm | - | 0 W/m² | - |
| 1777948768 | 10.56° C | 77% | 1007.6 hPa | 0 mm | - | 0 W/m² | - |
| 1777948465 | 10.56° C | 78% | 1007.6 hPa | 0 mm | - | 0 W/m² | - |
| 1777948163 | 10° C | 78% | 1007.7 hPa | 0 mm | - | 0 W/m² | - |
| 1777947861 | 10° C | 77% | 1007.5 hPa | 0 mm | - | 0 W/m² | - |
| 1777947557 | 10° C | 78% | 1007.5 hPa | 0 mm | - | 0 W/m² | - |
* Rain latest hour (hover to see other rain measurements)
** Current wind speed in m/s (hover to see current wind gust speed)